Terminal Aerodrome Forecast
Issued by NWS Cleveland, OH

Home | Current Version | Previous Version | Text Only | Print | Product List | Glossary On
Versions: 1 2 3 4 5 6 7 8 9 10 11 12 13 14 15 16 17 18 19 20 21 22 23 24 25
000
FTUS41 KCLE 191720
TAFCLE
TAF
KCLE 191720Z 1918/2024 31011KT P6SM SCT035
      TEMPO 1918/1921 BKN035
     FM192100 31008KT P6SM FEW028 SCT140
     FM200000 30004KT P6SM FEW250
     FM200800 18004KT P6SM FEW250
     FM201500 24006KT P6SM SKC=

USA.gov is the U.S. government's official web portal to all federal, state and local government web resources and services.